createdAt,value
2019-06-13T00:00:53.616Z,89.34
2019-06-13T00:01:53.563Z,89.62
2019-06-13T00:02:53.545Z,89.62
2019-06-13T00:03:53.535Z,89.72
2019-06-13T00:04:53.522Z,89.72
2019-06-13T00:05:53.531Z,89.91
2019-06-13T00:06:53.491Z,89.15
2019-06-13T00:07:53.482Z,89.62
2019-06-13T00:08:53.465Z,89.05
2019-06-13T00:09:53.445Z,89.05
2019-06-13T00:10:53.434Z,89.43
2019-06-13T00:11:53.414Z,89.43
2019-06-13T00:12:53.414Z,89.34
2019-06-13T00:13:53.399Z,89.05
2019-06-13T00:14:53.399Z,89.34
2019-06-13T00:15:53.364Z,89.05
2019-06-13T00:16:53.379Z,89.34
2019-06-13T00:17:53.350Z,88.95
2019-06-13T00:18:53.320Z,88.95
2019-06-13T00:19:53.307Z,89.34
2019-06-13T00:20:53.298Z,88.95
2019-06-13T00:21:53.278Z,89.05
2019-06-13T00:22:53.265Z,89.24
2019-06-13T00:23:53.254Z,89.05
2019-06-13T00:24:53.233Z,89.05
2019-06-13T00:25:53.230Z,89.05
2019-06-13T00:26:53.224Z,89.15
2019-06-13T00:27:53.190Z,89.15
2019-06-13T00:28:53.188Z,89.05
2019-06-13T00:29:53.171Z,89.15
2019-06-13T00:30:53.150Z,89.15
2019-06-13T00:31:53.133Z,89.05
2019-06-13T00:32:53.123Z,89.24
2019-06-13T00:33:53.108Z,88.86
2019-06-13T00:34:53.098Z,88.76
2019-06-13T00:35:59.794Z,88.71
2019-06-13T00:36:53.074Z,88.95
2019-06-13T00:37:53.056Z,88.95
2019-06-13T00:38:53.082Z,88.95
2019-06-13T00:39:53.040Z,88.95
2019-06-13T00:40:53.008Z,88.67
2019-06-13T00:41:52.991Z,88.86
2019-06-13T00:42:52.983Z,89.19
2019-06-13T00:43:52.971Z,88.67
2019-06-13T00:44:52.951Z,88.71
2019-06-13T00:45:52.943Z,88.62
2019-06-13T00:46:52.932Z,88.43
2019-06-13T00:47:52.909Z,88.33
2019-06-13T00:48:52.893Z,88.33
2019-06-13T00:49:52.886Z,87.85
2019-06-13T00:50:52.877Z,87.85
2019-06-13T00:51:52.887Z,88.04
2019-06-13T00:52:52.844Z,87.85
2019-06-13T00:53:52.829Z,87.85
2019-06-13T00:54:52.816Z,88.04
2019-06-13T00:55:52.795Z,87.76
2019-06-13T00:56:52.804Z,87.56
2019-06-13T00:57:52.768Z,87.56
2019-06-13T00:58:52.779Z,88.04
2019-06-13T00:59:52.745Z,87.85
2019-06-13T01:00:52.773Z,87.85
2019-06-13T01:01:52.718Z,87.66
2019-06-13T01:02:52.700Z,87.27
2019-06-13T01:03:52.691Z,87.27
2019-06-13T01:04:52.673Z,87.37
2019-06-13T01:05:52.656Z,87.37
2019-06-13T01:06:52.640Z,87.37
2019-06-13T01:07:52.629Z,87.37
2019-06-13T01:08:52.620Z,86.90
2019-06-13T01:09:52.607Z,87.18
2019-06-13T01:10:52.585Z,87.18
2019-06-13T01:11:52.573Z,87.37
2019-06-13T01:12:52.564Z,87.37
2019-06-13T01:13:52.539Z,87.47
2019-06-13T01:14:52.528Z,87.27
2019-06-13T01:15:52.542Z,87.47
2019-06-13T01:16:52.508Z,86.99
2019-06-13T01:17:52.485Z,86.80
2019-06-13T01:18:52.487Z,87.56
2019-06-13T01:19:52.511Z,86.90
2019-06-13T01:20:52.467Z,87.08
2019-06-13T01:21:52.434Z,87.18
2019-06-13T01:22:52.422Z,86.80
2019-06-13T01:23:52.404Z,87.08
2019-06-13T01:24:52.400Z,86.51
2019-06-13T01:25:52.387Z,86.80
2019-06-13T01:26:52.366Z,86.90
2019-06-13T01:27:52.348Z,86.32
2019-06-13T01:28:52.338Z,86.80
2019-06-13T01:29:52.321Z,86.80
2019-06-13T01:30:52.310Z,86.80
2019-06-13T01:31:52.298Z,86.61
2019-06-13T01:32:52.280Z,86.61
2019-06-13T01:33:52.267Z,86.61
2019-06-13T01:34:52.253Z,86.90
2019-06-13T01:35:52.233Z,86.32
2019-06-13T01:36:52.223Z,86.70
2019-06-13T01:37:52.213Z,86.51
2019-06-13T01:38:52.197Z,86.32
2019-06-13T01:39:52.181Z,86.13
2019-06-13T01:40:52.172Z,86.32
2019-06-13T01:41:52.157Z,86.22
2019-06-13T01:42:52.141Z,86.32
2019-06-13T01:43:52.124Z,86.32
2019-06-13T01:44:52.110Z,86.13
2019-06-13T01:45:52.098Z,86.70
2019-06-13T01:46:52.073Z,86.41
2019-06-13T01:47:52.082Z,86.13
2019-06-13T01:48:52.060Z,85.94
2019-06-13T01:49:52.037Z,86.61
2019-06-13T01:50:52.027Z,86.51
2019-06-13T01:51:52.013Z,86.41
2019-06-13T01:52:52.010Z,86.61
2019-06-13T01:53:51.986Z,86.51
2019-06-13T01:54:51.971Z,86.61
2019-06-13T01:55:51.967Z,85.94
2019-06-13T01:56:51.956Z,86.13
2019-06-13T01:57:51.924Z,86.22
2019-06-13T01:58:51.924Z,86.32
2019-06-13T01:59:51.897Z,86.13
2019-06-13T02:00:51.886Z,86.04
2019-06-13T02:01:51.885Z,86.22
2019-06-13T02:02:51.859Z,86.04
2019-06-13T02:03:51.835Z,86.22
2019-06-13T02:04:51.828Z,85.84
2019-06-13T02:05:51.821Z,85.75
2019-06-13T02:07:00.100Z,85.94
2019-06-13T02:07:51.787Z,85.75
2019-06-13T02:08:51.773Z,85.75
2019-06-13T02:09:51.757Z,85.65
2019-06-13T02:10:51.749Z,85.84
2019-06-13T02:11:51.735Z,86.41
2019-06-13T02:12:51.741Z,86.13
2019-06-13T02:13:51.700Z,86.22
2019-06-13T02:14:51.696Z,86.32
2019-06-13T02:15:51.677Z,86.51
2019-06-13T02:16:59.554Z,86.32
2019-06-13T02:17:51.653Z,86.32
2019-06-13T02:18:51.644Z,86.32
2019-06-13T02:19:51.615Z,86.18
2019-06-13T02:20:51.610Z,86.13
2019-06-13T02:21:51.595Z,86.41
2019-06-13T02:22:51.576Z,86.37
2019-06-13T02:23:51.560Z,86.41
2019-06-13T02:24:51.542Z,86.37
2019-06-13T02:25:51.535Z,86.32
2019-06-13T02:26:51.517Z,86.18
2019-06-13T02:27:51.503Z,86.22
2019-06-13T02:28:51.486Z,86.08
2019-06-13T02:29:51.479Z,86.28
2019-06-13T02:30:51.478Z,86.28
2019-06-13T02:32:00.565Z,86.08
2019-06-13T02:32:51.430Z,86.08
2019-06-13T02:33:51.432Z,86.28
2019-06-13T02:34:51.534Z,86.18
2019-06-13T02:35:51.395Z,85.89
2019-06-13T02:36:51.374Z,86.85
2019-06-13T02:37:52.191Z,86.57
2019-06-13T02:38:51.351Z,86.28
2019-06-13T02:39:51.329Z,86.18
2019-06-13T02:40:51.922Z,86.57
2019-06-13T02:41:51.442Z,86.66
2019-06-13T02:42:51.309Z,86.57
2019-06-13T02:43:51.283Z,86.76
2019-06-13T02:44:51.596Z,86.57
2019-06-13T02:45:51.308Z,86.37
2019-06-13T02:46:51.231Z,86.57
2019-06-13T02:47:51.222Z,86.66
2019-06-13T02:48:51.639Z,86.57
2019-06-13T02:49:51.326Z,87.14
2019-06-13T02:50:51.571Z,86.85
2019-06-13T02:51:51.181Z,87.14
2019-06-13T02:52:51.523Z,87.04
2019-06-13T02:53:51.201Z,86.94
2019-06-13T02:54:51.394Z,86.85
2019-06-13T02:55:51.634Z,87.14
2019-06-13T02:56:51.104Z,86.94
2019-06-13T02:57:51.093Z,86.66
2019-06-13T02:58:51.059Z,86.85
2019-06-13T02:59:51.051Z,86.85
2019-06-13T03:00:51.030Z,87.04
2019-06-13T03:01:51.019Z,86.85
2019-06-13T03:02:51.001Z,87.14
2019-06-13T03:03:51.006Z,87.43
2019-06-13T03:04:50.979Z,87.14
2019-06-13T03:05:50.961Z,87.23
2019-06-13T03:06:51.007Z,87.33
2019-06-13T03:07:50.939Z,87.33
2019-06-13T03:08:50.919Z,87.71
2019-06-13T03:09:50.912Z,87.52
2019-06-13T03:10:50.898Z,87.52
2019-06-13T03:11:50.877Z,87.62
2019-06-13T03:12:50.863Z,87.81
2019-06-13T03:13:50.916Z,87.90
2019-06-13T03:14:50.834Z,87.81
2019-06-13T03:15:50.816Z,88.19
2019-06-13T03:16:50.797Z,88.38
2019-06-13T03:17:50.791Z,88.09
2019-06-13T03:18:50.778Z,88.57
2019-06-13T03:19:50.774Z,88.29
2019-06-13T03:20:50.748Z,88.29
2019-06-13T03:21:50.735Z,88.29
2019-06-13T03:22:50.721Z,88.00
2019-06-13T03:23:50.700Z,88.38
2019-06-13T03:24:50.688Z,88.38
2019-06-13T03:25:50.688Z,88.38
2019-06-13T03:26:50.682Z,88.29
2019-06-13T03:27:50.647Z,88.95
2019-06-13T03:28:50.627Z,88.29
2019-06-13T03:29:50.790Z,88.76
2019-06-13T03:30:51.953Z,88.29
2019-06-13T03:31:51.469Z,88.09
2019-06-13T03:32:51.957Z,88.95
2019-06-13T03:33:50.882Z,88.76
2019-06-13T03:34:50.543Z,88.86
2019-06-13T03:35:50.542Z,88.67
2019-06-13T03:36:50.515Z,88.86
2019-06-13T03:38:01.434Z,88.86
2019-06-13T03:38:50.488Z,88.57
2019-06-13T03:39:50.470Z,89.05
2019-06-13T03:40:50.452Z,89.05
2019-06-13T03:41:50.543Z,88.67
2019-06-13T03:42:50.427Z,88.67
2019-06-13T03:43:50.416Z,88.95
2019-06-13T03:44:50.405Z,88.67
2019-06-13T03:45:50.385Z,89.15
2019-06-13T03:46:50.366Z,89.15
2019-06-13T03:47:50.355Z,89.24
2019-06-13T03:48:50.367Z,89.24
2019-06-13T03:49:50.330Z,89.43
2019-06-13T03:50:50.331Z,89.77
2019-06-13T03:51:50.489Z,89.96
2019-06-13T03:52:50.561Z,89.67
2019-06-13T03:53:50.291Z,89.58
2019-06-13T03:54:50.261Z,89.87
2019-06-13T03:55:50.421Z,89.96
2019-06-13T03:56:50.231Z,89.77
2019-06-13T03:57:50.213Z,90.34
2019-06-13T03:58:52.906Z,90.25
2019-06-13T03:59:50.188Z,90.16
2019-06-13T04:00:50.700Z,90.06
2019-06-13T04:01:50.200Z,90.63
2019-06-13T04:02:50.410Z,90.34
2019-06-13T04:03:50.132Z,90.82
2019-06-13T04:04:50.110Z,90.92
2019-06-13T04:05:50.546Z,90.73
2019-06-13T04:06:50.084Z,90.73
2019-06-13T04:07:50.363Z,90.73
2019-06-13T04:08:50.054Z,90.63
2019-06-13T04:09:50.037Z,90.53
2019-06-13T04:10:50.026Z,90.53
2019-06-13T04:11:50.178Z,90.73
2019-06-13T04:12:49.997Z,90.44
2019-06-13T04:13:50.634Z,90.73
2019-06-13T04:14:49.967Z,90.73
2019-06-13T04:15:49.955Z,90.82
2019-06-13T04:16:50.074Z,91.02
2019-06-13T04:17:50.317Z,90.82
2019-06-13T04:18:50.537Z,90.73
2019-06-13T04:19:50.412Z,90.44
2019-06-13T04:20:50.373Z,90.63
2019-06-13T04:21:49.861Z,90.53
2019-06-13T04:22:52.904Z,90.53
2019-06-13T04:23:50.206Z,90.44
2019-06-13T04:24:49.815Z,90.73
2019-06-13T04:25:50.238Z,90.82
2019-06-13T04:26:49.946Z,90.73
2019-06-13T04:27:49.774Z,90.63
2019-06-13T04:28:49.761Z,90.53
2019-06-13T04:29:50.062Z,91.02
2019-06-13T04:30:49.993Z,90.63
2019-06-13T04:31:51.446Z,90.73
2019-06-13T04:32:49.699Z,90.53
2019-06-13T04:33:49.861Z,90.63
2019-06-13T04:34:49.678Z,90.63
2019-06-13T04:35:50.624Z,90.63
2019-06-13T04:36:50.337Z,90.73
2019-06-13T04:37:50.245Z,90.63
2019-06-13T04:38:49.696Z,90.63
2019-06-13T04:39:49.687Z,90.82
2019-06-13T04:40:50.751Z,90.82
2019-06-13T04:41:53.397Z,90.44
2019-06-13T04:42:50.641Z,90.44
2019-06-13T04:43:49.746Z,90.53
2019-06-13T04:44:50.089Z,90.16
2019-06-13T04:45:50.200Z,90.16
2019-06-13T04:46:49.500Z,90.16
2019-06-13T04:47:49.947Z,89.77
2019-06-13T04:48:50.438Z,89.67
2019-06-13T04:49:49.462Z,89.48
2019-06-13T04:50:49.998Z,89.39
2019-06-13T04:51:50.173Z,89.48
2019-06-13T04:52:50.363Z,89.67
2019-06-13T04:53:50.227Z,89.87
2019-06-13T04:54:49.765Z,89.20
2019-06-13T04:55:50.149Z,89.01
2019-06-13T04:56:49.367Z,89.10
2019-06-13T04:57:49.809Z,89.20
2019-06-13T04:58:49.611Z,89.01
2019-06-13T04:59:49.839Z,88.91
2019-06-13T05:00:49.908Z,88.91
2019-06-13T05:01:50.883Z,88.91
2019-06-13T05:02:49.745Z,88.62
2019-06-13T05:03:49.867Z,88.62
2019-06-13T05:04:49.515Z,88.72
2019-06-13T05:05:49.983Z,88.34
2019-06-13T05:06:50.186Z,88.81
2019-06-13T05:07:49.713Z,88.34
2019-06-13T05:08:54.089Z,88.62
2019-06-13T05:09:50.364Z,88.53
2019-06-13T05:10:49.909Z,88.81
2019-06-13T05:11:49.724Z,88.81
2019-06-13T05:12:49.862Z,88.81
2019-06-13T05:13:49.989Z,88.81
2019-06-13T05:14:49.554Z,89.01
2019-06-13T05:15:49.186Z,88.91
2019-06-13T05:16:50.364Z,88.15
2019-06-13T05:17:49.568Z,88.43
2019-06-13T05:18:50.366Z,88.53
2019-06-13T05:19:49.749Z,88.05
2019-06-13T05:20:54.958Z,88.05
2019-06-13T05:21:49.915Z,88.05
2019-06-13T05:22:50.142Z,88.24
2019-06-13T05:23:49.636Z,88.53
2019-06-13T05:24:49.139Z,88.24
2019-06-13T05:25:49.585Z,88.24
2019-06-13T05:26:50.166Z,88.15
2019-06-13T05:27:49.497Z,88.24
2019-06-13T05:28:49.608Z,87.76
2019-06-13T05:29:49.776Z,87.76
2019-06-13T05:30:50.062Z,87.57
2019-06-13T05:31:50.257Z,87.95
2019-06-13T05:32:49.682Z,87.95
2019-06-13T05:33:49.785Z,87.76
2019-06-13T05:34:49.815Z,87.95
2019-06-13T05:35:50.249Z,87.52
2019-06-13T05:36:49.995Z,87.38
2019-06-13T05:37:49.635Z,87.62
2019-06-13T05:39:06.811Z,87.71
2019-06-13T05:39:50.206Z,87.52
2019-06-13T05:40:51.232Z,87.81
2019-06-13T05:41:49.283Z,87.90
2019-06-13T05:42:50.330Z,87.71
2019-06-13T05:43:55.680Z,87.81
2019-06-13T05:44:50.396Z,87.14
2019-06-13T05:45:51.393Z,87.33
2019-06-13T05:46:49.126Z,87.43
2019-06-13T05:47:50.515Z,87.47
2019-06-13T05:48:49.882Z,87.08
2019-06-13T05:49:50.695Z,86.90
2019-06-13T05:50:50.135Z,87.08
2019-06-13T05:51:51.538Z,86.80
2019-06-13T05:52:49.637Z,86.61
2019-06-13T05:53:49.810Z,86.61
2019-06-13T05:54:49.886Z,86.70
2019-06-13T05:55:49.781Z,86.41
2019-06-13T05:56:50.441Z,86.84
2019-06-13T05:57:49.709Z,86.08
2019-06-13T05:58:50.215Z,86.27
2019-06-13T05:59:49.640Z,85.98
2019-06-13T06:00:49.608Z,86.17
2019-06-13T06:01:49.965Z,85.69
2019-06-13T06:02:50.528Z,85.54
2019-06-13T06:03:50.049Z,85.45
2019-06-13T06:04:49.334Z,85.35
2019-06-13T06:05:49.613Z,85.45
2019-06-13T06:06:49.605Z,85.25
2019-06-13T06:07:49.772Z,85.16
2019-06-13T06:08:59.435Z,85.45
2019-06-13T06:09:50.212Z,85.06
2019-06-13T06:10:49.250Z,85.06
2019-06-13T06:11:50.486Z,84.82
2019-06-13T06:12:49.675Z,84.72
2019-06-13T06:13:49.171Z,84.53
2019-06-13T06:14:49.818Z,84.72
2019-06-13T06:15:49.861Z,84.53
2019-06-13T06:16:51.670Z,84.15
2019-06-13T06:17:50.487Z,84.25
2019-06-13T06:18:49.990Z,84.25
2019-06-13T06:19:49.606Z,84.34
2019-06-13T06:20:50.674Z,84.25
2019-06-13T06:21:49.733Z,83.95
2019-06-13T06:22:51.191Z,83.52
2019-06-13T06:23:49.989Z,83.61
2019-06-13T06:24:49.592Z,83.33
2019-06-13T06:25:50.209Z,83.71
2019-06-13T06:26:49.398Z,83.42
2019-06-13T06:27:50.197Z,83.52
2019-06-13T06:28:50.212Z,82.85
2019-06-13T06:29:49.501Z,82.85
2019-06-13T06:30:50.057Z,83.04
2019-06-13T06:31:49.040Z,83.04
2019-06-13T06:32:50.396Z,83.04
2019-06-13T06:33:49.154Z,82.75
2019-06-13T06:34:49.775Z,82.60
2019-06-13T06:35:50.101Z,82.85
2019-06-13T06:36:50.103Z,82.37
2019-06-13T06:37:49.290Z,82.56
2019-06-13T06:38:50.397Z,82.03
2019-06-13T06:39:56.639Z,81.74
2019-06-13T06:40:49.870Z,81.45
2019-06-13T06:41:49.680Z,81.64
2019-06-13T06:42:49.680Z,81.64
2019-06-13T06:43:49.778Z,81.16
2019-06-13T06:44:50.203Z,81.26
2019-06-13T06:45:49.712Z,80.78
2019-06-13T06:46:50.198Z,81.07
2019-06-13T06:47:50.296Z,80.68
2019-06-13T06:48:49.665Z,80.68
2019-06-13T06:49:49.943Z,80.78
2019-06-13T06:50:50.442Z,80.63
2019-06-13T06:51:49.379Z,81.01
2019-06-13T06:52:50.365Z,80.43
2019-06-13T06:53:49.220Z,80.15
2019-06-13T06:54:50.015Z,80.24
2019-06-13T06:55:50.075Z,80.15
2019-06-13T06:56:49.656Z,79.76
2019-06-13T06:57:49.767Z,79.76
2019-06-13T06:58:49.896Z,79.86
2019-06-13T06:59:50.101Z,79.99
2019-06-13T07:00:49.412Z,80.15
2019-06-13T07:01:49.932Z,79.99
2019-06-13T07:02:50.083Z,79.61
2019-06-13T07:03:49.742Z,79.13
2019-06-13T07:04:49.819Z,79.22
2019-06-13T07:05:50.081Z,79.03
2019-06-13T07:06:49.798Z,78.45
2019-06-13T07:07:49.067Z,78.75
2019-06-13T07:08:50.019Z,78.45
2019-06-13T07:09:59.399Z,78.75
2019-06-13T07:10:50.258Z,78.55
2019-06-13T07:11:49.907Z,78.75
2019-06-13T07:12:50.082Z,77.88
2019-06-13T07:13:50.119Z,78.11
2019-06-13T07:14:49.298Z,78.21
2019-06-13T07:15:50.134Z,77.63
2019-06-13T07:16:50.193Z,77.15
2019-06-13T07:17:49.773Z,77.25
2019-06-13T07:18:49.106Z,76.77
2019-06-13T07:19:50.363Z,76.09
2019-06-13T07:20:50.289Z,76.00
2019-06-13T07:21:49.855Z,75.71
2019-06-13T07:22:49.320Z,75.71
2019-06-13T07:23:50.027Z,75.84
2019-06-13T07:24:50.108Z,75.56
2019-06-13T07:25:49.895Z,75.75
2019-06-13T07:26:51.070Z,75.37
2019-06-13T07:27:49.892Z,75.75
2019-06-13T07:28:48.957Z,75.46
2019-06-13T07:29:49.314Z,75.37
2019-06-13T07:30:49.497Z,75.23
2019-06-13T07:31:50.456Z,74.75
2019-06-13T07:32:49.457Z,75.23
2019-06-13T07:33:49.930Z,74.85
2019-06-13T07:34:49.691Z,75.20
2019-06-13T07:35:49.609Z,75.10
2019-06-13T07:36:49.649Z,75.10
2019-06-13T07:37:49.275Z,75.00
2019-06-13T07:38:49.786Z,75.13
2019-06-13T07:39:49.920Z,75.42
2019-06-13T07:40:49.859Z,75.29
2019-06-13T07:41:49.541Z,75.10
2019-06-13T07:42:49.750Z,75.20
2019-06-13T07:43:49.421Z,75.13
2019-06-13T07:44:49.502Z,75.23
2019-06-13T07:45:49.741Z,75.38
2019-06-13T07:46:50.074Z,75.67
2019-06-13T07:47:50.501Z,75.23
2019-06-13T07:48:49.195Z,75.13
2019-06-13T07:49:50.092Z,75.42
2019-06-13T07:50:49.708Z,75.38
2019-06-13T07:51:50.101Z,74.90
2019-06-13T07:52:49.835Z,75.48
2019-06-13T07:53:48.993Z,75.57
2019-06-13T07:54:47.096Z,75.52
2019-06-13T07:55:49.630Z,76.00
2019-06-13T07:56:49.881Z,75.42
2019-06-13T07:57:49.328Z,75.71
2019-06-13T07:58:47.048Z,75.23
2019-06-13T07:59:48.050Z,75.23
2019-06-13T08:00:50.103Z,75.52
2019-06-13T08:01:49.718Z,74.65
2019-06-13T08:02:47.001Z,74.46
2019-06-13T08:03:49.471Z,74.85
2019-06-13T08:04:49.524Z,74.75
2019-06-13T08:05:49.889Z,74.75
2019-06-13T08:06:49.495Z,75.17
2019-06-13T08:07:49.208Z,74.40
2019-06-13T08:08:49.747Z,74.40
2019-06-13T08:09:47.034Z,73.47
2019-06-13T08:10:55.370Z,73.00
2019-06-13T08:11:48.962Z,73.09
2019-06-13T08:12:46.901Z,72.94
2019-06-13T08:13:49.120Z,72.65
2019-06-13T08:14:50.059Z,72.26
2019-06-13T08:15:49.148Z,72.39
2019-06-13T08:16:46.853Z,72.30
2019-06-13T08:17:49.056Z,71.08
2019-06-13T08:18:49.731Z,70.44
2019-06-13T08:19:49.237Z,69.77
2019-06-13T08:20:49.551Z,69.29
2019-06-13T08:21:49.453Z,69.19
2019-06-13T08:22:46.797Z,69.03
2019-06-13T08:23:49.288Z,68.55
2019-06-13T08:24:49.336Z,68.29
2019-06-13T08:25:49.660Z,68.29
2019-06-13T08:26:48.854Z,67.65
2019-06-13T08:27:49.515Z,67.46
2019-06-13T08:28:46.743Z,66.78
2019-06-13T08:29:46.737Z,66.30
2019-06-13T08:30:47.223Z,66.24
2019-06-13T08:31:46.726Z,66.05
2019-06-13T08:32:57.100Z,65.37
2019-06-13T08:33:46.705Z,65.17
2019-06-13T08:34:57.252Z,65.11
2019-06-13T08:35:46.696Z,65.11
2019-06-13T08:36:49.734Z,64.72
2019-06-13T08:37:46.686Z,64.56
2019-06-13T08:38:49.550Z,63.69
2019-06-13T08:39:49.950Z,63.11
2019-06-13T08:40:46.665Z,62.82
2019-06-13T08:41:46.650Z,61.86
2019-06-13T08:42:46.647Z,62.24
2019-06-13T08:43:46.654Z,62.37
2019-06-13T08:44:48.959Z,62.56
2019-06-13T08:45:46.630Z,62.56
2019-06-13T08:46:49.550Z,62.50
2019-06-13T08:47:49.593Z,62.30
2019-06-13T08:49:04.863Z,61.56
2019-06-13T08:49:48.982Z,61.66
2019-06-13T08:50:49.744Z,60.98
2019-06-13T08:51:49.169Z,60.85
2019-06-13T08:52:46.583Z,61.43
2019-06-13T08:53:46.586Z,61.36
2019-06-13T08:54:49.875Z,61.05
2019-06-13T08:55:46.580Z,60.47
2019-06-13T08:56:46.561Z,60.30
2019-06-13T08:57:46.558Z,60.01
2019-06-13T08:58:46.551Z,59.75
2019-06-13T08:59:46.544Z,59.82
2019-06-13T09:00:46.548Z,59.75
2019-06-13T09:01:46.535Z,60.11
2019-06-13T09:02:46.532Z,59.63
2019-06-13T09:03:49.362Z,59.72
2019-06-13T09:04:46.519Z,59.79
2019-06-13T09:05:50.441Z,59.66
2019-06-13T09:06:49.169Z,59.66
2019-06-13T09:07:49.667Z,60.11
2019-06-13T09:08:46.495Z,60.50
2019-06-13T09:09:46.487Z,61.18
2019-06-13T09:10:46.482Z,60.96
2019-06-13T09:11:49.249Z,60.96
2019-06-13T09:12:46.469Z,61.25
2019-06-13T09:13:46.466Z,61.34
2019-06-13T09:14:46.455Z,61.51
2019-06-13T09:15:46.461Z,61.34
2019-06-13T09:16:46.467Z,60.83
2019-06-13T09:17:46.437Z,61.15
2019-06-13T09:18:46.429Z,61.34
2019-06-13T09:19:46.423Z,60.67
2019-06-13T09:20:46.420Z,61.15
2019-06-13T09:21:46.409Z,60.76
2019-06-13T09:22:46.404Z,60.28
2019-06-13T09:23:46.394Z,60.02
2019-06-13T09:24:46.387Z,60.02
2019-06-13T09:25:49.088Z,59.73
2019-06-13T09:26:49.083Z,59.53
2019-06-13T09:27:46.367Z,59.63
2019-06-13T09:28:49.313Z,59.31
2019-06-13T09:29:46.351Z,59.31
2019-06-13T09:30:46.345Z,59.12
2019-06-13T09:31:48.252Z,59.70
2019-06-13T09:33:04.451Z,59.12
2019-06-13T09:33:46.325Z,58.67
2019-06-13T09:34:46.322Z,58.21
2019-06-13T09:35:46.317Z,57.73
2019-06-13T09:36:46.307Z,56.50
2019-06-13T09:37:46.296Z,55.60
2019-06-13T09:38:47.735Z,55.82
2019-06-13T09:39:46.278Z,55.79
2019-06-13T09:40:50.982Z,55.41
2019-06-13T09:42:08.713Z,55.02
2019-06-13T09:42:46.260Z,54.85
2019-06-13T09:43:46.258Z,55.15
2019-06-13T09:44:46.244Z,55.05
2019-06-13T09:45:49.391Z,54.30
2019-06-13T09:46:46.235Z,54.11
2019-06-13T09:47:46.235Z,53.72
2019-06-13T09:48:46.224Z,53.63
2019-06-13T09:49:46.218Z,53.81
2019-06-13T09:50:49.437Z,54.11
2019-06-13T09:51:46.203Z,54.21
2019-06-13T09:52:46.197Z,54.30
2019-06-13T09:53:46.191Z,53.91
2019-06-13T09:55:00.150Z,53.69
2019-06-13T09:55:49.839Z,53.79
2019-06-13T09:56:46.176Z,54.05
2019-06-13T09:57:46.168Z,54.25
2019-06-13T09:58:46.164Z,55.02
2019-06-13T09:59:46.151Z,54.90
2019-06-13T10:00:46.150Z,55.38
2019-06-13T10:01:46.144Z,55.67
2019-06-13T10:02:46.135Z,55.77
2019-06-13T10:03:46.125Z,55.96
2019-06-13T10:04:46.119Z,55.29
2019-06-13T10:05:46.154Z,54.73
2019-06-13T10:06:46.105Z,54.95
2019-06-13T10:07:46.094Z,54.37
2019-06-13T10:08:46.097Z,53.79
2019-06-13T10:09:46.094Z,54.15
2019-06-13T10:10:46.079Z,54.08
2019-06-13T10:11:46.081Z,54.17
2019-06-13T10:12:51.285Z,54.37
2019-06-13T10:13:46.061Z,53.91
2019-06-13T10:14:46.053Z,53.72
2019-06-13T10:15:46.046Z,53.72
2019-06-13T10:16:46.044Z,53.55
2019-06-13T10:17:46.037Z,53.85
2019-06-13T10:18:46.030Z,53.55
2019-06-13T10:19:46.026Z,53.55
2019-06-13T10:20:46.016Z,53.85
2019-06-13T10:21:46.019Z,54.03
2019-06-13T10:22:46.006Z,54.26
2019-06-13T10:23:46.004Z,53.09
2019-06-13T10:25:01.133Z,52.73
2019-06-13T10:25:45.999Z,52.64
2019-06-13T10:26:45.983Z,51.89
2019-06-13T10:27:45.979Z,51.69
2019-06-13T10:28:45.986Z,51.40
2019-06-13T10:29:45.973Z,51.14
2019-06-13T10:30:45.966Z,49.95
2019-06-13T10:31:45.960Z,50.34
2019-06-13T10:32:45.954Z,50.72
2019-06-13T10:33:45.954Z,50.72
2019-06-13T10:34:45.943Z,50.82
2019-06-13T10:35:45.946Z,50.07
2019-06-13T10:36:45.936Z,49.58
2019-06-13T10:37:45.931Z,49.10
2019-06-13T10:38:50.889Z,49.02
2019-06-13T10:39:45.923Z,48.83
2019-06-13T10:40:45.927Z,48.64
2019-06-13T10:41:45.913Z,48.73
2019-06-13T10:43:00.890Z,48.25
2019-06-13T10:43:45.916Z,48.73
2019-06-13T10:44:45.903Z,48.64
2019-06-13T10:45:45.897Z,48.25
2019-06-13T10:46:45.889Z,48.73
2019-06-13T10:47:45.895Z,48.73
2019-06-13T10:48:45.881Z,48.25
2019-06-13T10:49:45.877Z,47.88
2019-06-13T10:50:45.875Z,47.88
2019-06-13T10:51:45.866Z,47.88
2019-06-13T10:52:45.858Z,47.61
2019-06-13T10:53:45.865Z,47.42
2019-06-13T10:54:45.853Z,46.96
2019-06-13T10:55:45.852Z,46.78
2019-06-13T10:56:45.853Z,46.30
2019-06-13T10:57:45.842Z,46.23
2019-06-13T10:58:45.842Z,45.64
2019-06-13T10:59:45.835Z,44.96
2019-06-13T11:00:45.831Z,45.04
2019-06-13T11:01:45.827Z,45.62
2019-06-13T11:02:45.824Z,46.47
2019-06-13T11:03:45.821Z,46.08
2019-06-13T11:04:45.813Z,46.28
2019-06-13T11:05:45.810Z,46.86
2019-06-13T11:06:45.808Z,46.74
2019-06-13T11:07:45.836Z,47.32
2019-06-13T11:08:45.806Z,47.13
2019-06-13T11:09:45.801Z,47.30
2019-06-13T11:10:45.789Z,47.01
2019-06-13T11:11:45.788Z,47.59
2019-06-13T11:12:45.786Z,47.66
2019-06-13T11:13:45.783Z,47.28
2019-06-13T11:14:45.777Z,48.05
2019-06-13T11:15:45.770Z,48.13
2019-06-13T11:16:56.962Z,48.22
2019-06-13T11:17:45.763Z,48.88
2019-06-13T11:18:45.757Z,48.78
2019-06-13T11:19:45.752Z,48.39
2019-06-13T11:20:45.750Z,47.89
2019-06-13T11:21:45.747Z,48.37
2019-06-13T11:22:45.744Z,48.83
2019-06-13T11:23:45.774Z,48.76
2019-06-13T11:24:45.733Z,48.85
2019-06-13T11:25:45.726Z,48.37
2019-06-13T11:26:45.725Z,48.66
2019-06-13T11:27:45.741Z,48.76
2019-06-13T11:28:45.711Z,48.85
2019-06-13T11:29:45.707Z,48.57
2019-06-13T11:30:45.704Z,48.76
2019-06-13T11:31:45.698Z,48.66
2019-06-13T11:32:45.691Z,48.10
2019-06-13T11:33:46.048Z,48.52
2019-06-13T11:34:45.686Z,47.86
2019-06-13T11:35:45.679Z,47.78
2019-06-13T11:36:45.673Z,47.11
2019-06-13T11:37:47.982Z,46.84
2019-06-13T11:38:45.666Z,46.47
2019-06-13T11:39:45.662Z,46.08
2019-06-13T11:40:45.688Z,46.11
2019-06-13T11:41:45.676Z,45.72
2019-06-13T11:42:45.653Z,44.94
2019-06-13T11:43:45.835Z,45.35
2019-06-13T11:44:45.643Z,44.86
2019-06-13T11:45:45.670Z,44.76
2019-06-13T11:46:45.636Z,45.04
2019-06-13T11:47:45.641Z,45.42
2019-06-13T11:48:45.629Z,45.23
2019-06-13T11:49:45.625Z,45.31
2019-06-13T11:50:45.623Z,45.31
2019-06-13T11:51:45.629Z,45.28
2019-06-13T11:52:45.614Z,45.67
2019-06-13T11:53:45.619Z,46.42
2019-06-13T11:54:45.608Z,46.04
2019-06-13T11:55:45.609Z,46.98
2019-06-13T11:56:45.604Z,46.77
2019-06-13T11:57:45.594Z,46.58
2019-06-13T11:58:45.591Z,46.94
2019-06-13T11:59:45.597Z,47.03
2019-06-13T12:00:45.645Z,47.64
2019-06-13T12:01:45.582Z,46.50
2019-06-13T12:02:45.576Z,46.04
2019-06-13T12:03:45.582Z,45.87
2019-06-13T12:04:45.571Z,45.18
2019-06-13T12:05:45.567Z,45.18
2019-06-13T12:06:45.560Z,45.28
2019-06-13T12:07:45.575Z,45.38
2019-06-13T12:08:45.561Z,45.26
2019-06-13T12:09:45.557Z,45.38
2019-06-13T12:10:46.623Z,44.62
2019-06-13T12:11:45.546Z,43.95
2019-06-13T12:12:45.563Z,43.58
2019-06-13T12:14:02.769Z,43.67
2019-06-13T12:14:45.542Z,43.01
2019-06-13T12:15:45.538Z,42.43
2019-06-13T12:16:45.583Z,42.55
2019-06-13T12:17:45.527Z,42.25
2019-06-13T12:18:45.533Z,41.69
2019-06-13T12:19:45.529Z,42.00
2019-06-13T12:20:45.597Z,41.44
2019-06-13T12:21:45.528Z,40.95
2019-06-13T12:22:45.570Z,40.66
2019-06-13T12:23:45.534Z,40.48
2019-06-13T12:24:45.530Z,40.19
2019-06-13T12:25:45.534Z,40.19
2019-06-13T12:26:45.532Z,40.19
2019-06-13T12:27:45.530Z,39.59
2019-06-13T12:28:45.540Z,39.57
2019-06-13T12:29:45.527Z,40.03
2019-06-13T12:30:45.527Z,40.21
2019-06-13T12:31:45.531Z,40.58
2019-06-13T12:32:45.533Z,41.53
2019-06-13T12:33:45.529Z,42.49
2019-06-13T12:34:49.618Z,42.68
2019-06-13T12:35:45.524Z,42.95
2019-06-13T12:36:45.517Z,43.44
2019-06-13T12:37:45.515Z,43.55
2019-06-13T12:38:45.514Z,43.19
2019-06-13T12:39:45.511Z,42.99
2019-06-13T12:40:45.596Z,42.82
2019-06-13T12:41:45.507Z,42.74
2019-06-13T12:42:45.517Z,41.99
2019-06-13T12:43:45.541Z,41.42
2019-06-13T12:44:45.511Z,40.86
2019-06-13T12:45:45.511Z,40.27
2019-06-13T12:46:45.506Z,39.98
2019-06-13T12:47:45.509Z,40.19
2019-06-13T12:48:45.511Z,40.01
2019-06-13T12:49:45.506Z,39.65
2019-06-13T12:50:45.544Z,39.16
2019-06-13T12:51:45.512Z,38.87
2019-06-13T12:52:45.514Z,39.14